sensor_id;sensor_type;location;lat;lon;timestamp;temperature;humidity
27376;DHT22;14844;51.302;6.354;2022-09-03T00:00:43;13.00;98.20
27376;DHT22;14844;51.302;6.354;2022-09-03T00:04:02;13.00;99.20
27376;DHT22;14844;51.302;6.354;2022-09-03T00:06:12;13.00;99.20
27376;DHT22;14844;51.302;6.354;2022-09-03T00:08:50;13.00;99.10
27376;DHT22;14844;51.302;6.354;2022-09-03T00:11:23;12.90;99.30
27376;DHT22;14844;51.302;6.354;2022-09-03T00:14:15;12.90;99.40
27376;DHT22;14844;51.302;6.354;2022-09-03T00:16:53;12.90;99.40
27376;DHT22;14844;51.302;6.354;2022-09-03T00:19:28;12.80;99.50
27376;DHT22;14844;51.302;6.354;2022-09-03T00:22:07;12.80;99.50
27376;DHT22;14844;51.302;6.354;2022-09-03T00:24:38;12.70;99.50
27376;DHT22;14844;51.302;6.354;2022-09-03T00:27:13;12.70;99.60
27376;DHT22;14844;51.302;6.354;2022-09-03T00:29:48;12.60;99.70
27376;DHT22;14844;51.302;6.354;2022-09-03T00:32:36;12.60;99.80
27376;DHT22;14844;51.302;6.354;2022-09-03T00:35:05;12.60;99.80
27376;DHT22;14844;51.302;6.354;2022-09-03T00:37:34;12.60;99.90
27376;DHT22;14844;51.302;6.354;2022-09-03T00:39:59;12.60;99.90
27376;DHT22;14844;51.302;6.354;2022-09-03T00:42:37;12.70;99.80
27376;DHT22;14844;51.302;6.354;2022-09-03T00:45:26;12.70;99.70
27376;DHT22;14844;51.302;6.354;2022-09-03T00:50:49;12.80;99.60
27376;DHT22;14844;51.302;6.354;2022-09-03T00:53:50;12.80;99.50
27376;DHT22;14844;51.302;6.354;2022-09-03T00:59:01;12.90;99.20
27376;DHT22;14844;51.302;6.354;2022-09-03T01:10:20;13.00;97.80
27376;DHT22;14844;51.302;6.354;2022-09-03T01:20:28;13.30;96.00
27376;DHT22;14844;51.302;6.354;2022-09-03T01:23:24;13.40;95.80
27376;DHT22;14844;51.302;6.354;2022-09-03T01:26:09;13.50;95.60
27376;DHT22;14844;51.302;6.354;2022-09-03T01:29:11;13.50;95.70
27376;DHT22;14844;51.302;6.354;2022-09-03T01:43:14;13.70;94.50
27376;DHT22;14844;51.302;6.354;2022-09-03T01:45:53;13.70;94.10
27376;DHT22;14844;51.302;6.354;2022-09-03T01:48:43;13.70;93.90
27376;DHT22;14844;51.302;6.354;2022-09-03T01:51:26;13.70;94.00
27376;DHT22;14844;51.302;6.354;2022-09-03T02:00:03;13.80;93.60
27376;DHT22;14844;51.302;6.354;2022-09-03T02:02:29;13.80;93.70
27376;DHT22;14844;51.302;6.354;2022-09-03T02:05:05;13.70;93.70
27376;DHT22;14844;51.302;6.354;2022-09-03T02:07:47;13.70;93.60
27376;DHT22;14844;51.302;6.354;2022-09-03T02:10:19;13.80;93.70
27376;DHT22;14844;51.302;6.354;2022-09-03T02:12:48;13.80;93.40
27376;DHT22;14844;51.302;6.354;2022-09-03T02:15:19;13.80;93.40
27376;DHT22;14844;51.302;6.354;2022-09-03T02:17:46;13.80;93.70
27376;DHT22;14844;51.302;6.354;2022-09-03T02:20:18;13.80;93.70
27376;DHT22;14844;51.302;6.354;2022-09-03T02:22:45;13.70;93.80
27376;DHT22;14844;51.302;6.354;2022-09-03T02:25:12;13.70;93.80
27376;DHT22;14844;51.302;6.354;2022-09-03T02:27:38;13.60;94.00
27376;DHT22;14844;51.302;6.354;2022-09-03T02:30:04;13.60;94.20
27376;DHT22;14844;51.302;6.354;2022-09-03T02:32:31;13.50;94.20
27376;DHT22;14844;51.302;6.354;2022-09-03T02:34:57;13.50;94.40
27376;DHT22;14844;51.302;6.354;2022-09-03T02:37:23;13.40;94.70
27376;DHT22;14844;51.302;6.354;2022-09-03T02:39:48;13.30;95.30
27376;DHT22;14844;51.302;6.354;2022-09-03T02:42:17;13.30;95.10
27376;DHT22;14844;51.302;6.354;2022-09-03T02:44:47;13.20;95.40
27376;DHT22;14844;51.302;6.354;2022-09-03T02:47:14;13.10;95.60
27376;DHT22;14844;51.302;6.354;2022-09-03T02:49:40;13.10;95.60
27376;DHT22;14844;51.302;6.354;2022-09-03T02:52:07;13.00;95.50
27376;DHT22;14844;51.302;6.354;2022-09-03T02:54:35;12.90;95.60
27376;DHT22;14844;51.302;6.354;2022-09-03T02:57:08;12.90;95.60
27376;DHT22;14844;51.302;6.354;2022-09-03T02:59:34;12.90;95.80
27376;DHT22;14844;51.302;6.354;2022-09-03T03:02:00;12.90;96.10
27376;DHT22;14844;51.302;6.354;2022-09-03T03:04:25;12.90;96.00
27376;DHT22;14844;51.302;6.354;2022-09-03T03:06:51;12.90;96.00
27376;DHT22;14844;51.302;6.354;2022-09-03T03:09:17;12.90;96.10
27376;DHT22;14844;51.302;6.354;2022-09-03T03:11:42;12.80;96.20
27376;DHT22;14844;51.302;6.354;2022-09-03T03:14:08;12.90;96.20
27376;DHT22;14844;51.302;6.354;2022-09-03T03:16:34;12.90;96.20
27376;DHT22;14844;51.302;6.354;2022-09-03T03:19:00;12.90;96.20
27376;DHT22;14844;51.302;6.354;2022-09-03T03:21:25;12.80;96.40
27376;DHT22;14844;51.302;6.354;2022-09-03T03:23:51;12.80;96.70
27376;DHT22;14844;51.302;6.354;2022-09-03T03:26:18;12.70;97.00
27376;DHT22;14844;51.302;6.354;2022-09-03T03:28:45;12.70;97.00
27376;DHT22;14844;51.302;6.354;2022-09-03T03:31:18;12.80;97.10
27376;DHT22;14844;51.302;6.354;2022-09-03T03:33:50;12.80;97.20
27376;DHT22;14844;51.302;6.354;2022-09-03T03:36:16;12.80;96.90
27376;DHT22;14844;51.302;6.354;2022-09-03T03:38:42;12.90;96.90
27376;DHT22;14844;51.302;6.354;2022-09-03T03:41:13;12.80;96.70
27376;DHT22;14844;51.302;6.354;2022-09-03T03:43:40;12.80;97.00
27376;DHT22;14844;51.302;6.354;2022-09-03T03:46:06;12.70;97.00
27376;DHT22;14844;51.302;6.354;2022-09-03T03:48:32;12.70;97.00
27376;DHT22;14844;51.302;6.354;2022-09-03T03:51:02;12.70;97.10
27376;DHT22;14844;51.302;6.354;2022-09-03T03:53:29;12.70;97.00
27376;DHT22;14844;51.302;6.354;2022-09-03T03:55:56;12.80;96.90
27376;DHT22;14844;51.302;6.354;2022-09-03T03:58:23;12.90;96.80
27376;DHT22;14844;51.302;6.354;2022-09-03T04:00:50;12.90;96.50
27376;DHT22;14844;51.302;6.354;2022-09-03T04:03:16;13.00;96.30
27376;DHT22;14844;51.302;6.354;2022-09-03T04:05:41;13.10;96.20
27376;DHT22;14844;51.302;6.354;2022-09-03T04:08:07;13.10;96.10
27376;DHT22;14844;51.302;6.354;2022-09-03T04:10:33;13.10;96.20
27376;DHT22;14844;51.302;6.354;2022-09-03T04:12:58;13.00;96.30
27376;DHT22;14844;51.302;6.354;2022-09-03T04:15:25;13.00;96.40
27376;DHT22;14844;51.302;6.354;2022-09-03T04:17:53;13.00;96.50
27376;DHT22;14844;51.302;6.354;2022-09-03T04:20:19;12.90;96.50
27376;DHT22;14844;51.302;6.354;2022-09-03T04:22:45;12.80;96.70
27376;DHT22;14844;51.302;6.354;2022-09-03T04:25:10;12.80;96.90
27376;DHT22;14844;51.302;6.354;2022-09-03T04:27:36;12.80;96.70
27376;DHT22;14844;51.302;6.354;2022-09-03T04:30:02;12.80;96.80
27376;DHT22;14844;51.302;6.354;2022-09-03T04:32:28;12.80;96.90
27376;DHT22;14844;51.302;6.354;2022-09-03T04:35:12;12.80;96.80
27376;DHT22;14844;51.302;6.354;2022-09-03T04:37:38;12.80;96.90
27376;DHT22;14844;51.302;6.354;2022-09-03T04:40:03;12.80;96.90
27376;DHT22;14844;51.302;6.354;2022-09-03T04:42:29;12.80;97.00
27376;DHT22;14844;51.302;6.354;2022-09-03T04:44:54;12.70;97.10
27376;DHT22;14844;51.302;6.354;2022-09-03T04:47:20;12.70;97.10
27376;DHT22;14844;51.302;6.354;2022-09-03T04:49:46;12.70;97.30
27376;DHT22;14844;51.302;6.354;2022-09-03T04:52:11;12.60;97.50
27376;DHT22;14844;51.302;6.354;2022-09-03T04:54:36;12.50;97.60
27376;DHT22;14844;51.302;6.354;2022-09-03T04:57:03;12.50;97.80
27376;DHT22;14844;51.302;6.354;2022-09-03T04:59:28;12.50;97.90
27376;DHT22;14844;51.302;6.354;2022-09-03T05:01:54;12.50;98.50
27376;DHT22;14844;51.302;6.354;2022-09-03T05:04:20;12.50;98.90
27376;DHT22;14844;51.302;6.354;2022-09-03T05:06:46;12.40;98.90
27376;DHT22;14844;51.302;6.354;2022-09-03T05:09:12;12.50;98.90
27376;DHT22;14844;51.302;6.354;2022-09-03T05:11:37;12.50;98.80
27376;DHT22;14844;51.302;6.354;2022-09-03T05:14:03;12.60;98.70
27376;DHT22;14844;51.302;6.354;2022-09-03T05:16:30;12.60;98.60
27376;DHT22;14844;51.302;6.354;2022-09-03T05:18:57;12.70;98.40
27376;DHT22;14844;51.302;6.354;2022-09-03T05:21:24;12.80;98.40
27376;DHT22;14844;51.302;6.354;2022-09-03T05:23:51;12.80;98.30
27376;DHT22;14844;51.302;6.354;2022-09-03T05:26:22;12.90;98.10
27376;DHT22;14844;51.302;6.354;2022-09-03T05:28:52;13.10;97.90
27376;DHT22;14844;51.302;6.354;2022-09-03T05:31:20;13.30;97.70
27376;DHT22;14844;51.302;6.354;2022-09-03T05:33:51;13.40;97.30
27376;DHT22;14844;51.302;6.354;2022-09-03T05:36:19;13.60;97.00
27376;DHT22;14844;51.302;6.354;2022-09-03T05:38:45;13.70;96.90
27376;DHT22;14844;51.302;6.354;2022-09-03T05:41:13;13.80;96.60
27376;DHT22;14844;51.302;6.354;2022-09-03T05:43:39;14.00;96.20
27376;DHT22;14844;51.302;6.354;2022-09-03T05:46:10;14.20;95.90
27376;DHT22;14844;51.302;6.354;2022-09-03T05:48:38;14.40;95.50
27376;DHT22;14844;51.302;6.354;2022-09-03T05:51:09;14.50;95.30
27376;DHT22;14844;51.302;6.354;2022-09-03T05:53:37;14.60;94.90
27376;DHT22;14844;51.302;6.354;2022-09-03T05:56:06;14.80;94.90
27376;DHT22;14844;51.302;6.354;2022-09-03T05:58:33;15.00;94.90
27376;DHT22;14844;51.302;6.354;2022-09-03T06:01:08;15.10;94.90
27376;DHT22;14844;51.302;6.354;2022-09-03T06:03:33;15.20;94.90
27376;DHT22;14844;51.302;6.354;2022-09-03T06:05:59;15.50;94.70
27376;DHT22;14844;51.302;6.354;2022-09-03T06:08:25;15.70;94.50
27376;DHT22;14844;51.302;6.354;2022-09-03T06:10:57;15.80;94.40
27376;DHT22;14844;51.302;6.354;2022-09-03T06:13:23;16.00;94.70
27376;DHT22;14844;51.302;6.354;2022-09-03T06:15:48;16.20;93.80
27376;DHT22;14844;51.302;6.354;2022-09-03T06:18:14;16.40;93.00
27376;DHT22;14844;51.302;6.354;2022-09-03T06:20:39;16.50;92.50
27376;DHT22;14844;51.302;6.354;2022-09-03T06:23:05;16.70;92.30
27376;DHT22;14844;51.302;6.354;2022-09-03T06:25:30;16.90;91.10
27376;DHT22;14844;51.302;6.354;2022-09-03T06:27:56;17.10;90.60
27376;DHT22;14844;51.302;6.354;2022-09-03T06:30:22;17.30;90.30
27376;DHT22;14844;51.302;6.354;2022-09-03T06:32:49;17.50;90.10
27376;DHT22;14844;51.302;6.354;2022-09-03T06:35:15;17.70;89.90
27376;DHT22;14844;51.302;6.354;2022-09-03T06:37:41;17.90;89.00
27376;DHT22;14844;51.302;6.354;2022-09-03T06:40:08;18.10;88.10
27376;DHT22;14844;51.302;6.354;2022-09-03T06:42:38;18.20;87.20
27376;DHT22;14844;51.302;6.354;2022-09-03T06:45:04;18.40;86.40
27376;DHT22;14844;51.302;6.354;2022-09-03T06:47:31;18.50;85.70
27376;DHT22;14844;51.302;6.354;2022-09-03T06:49:58;18.60;85.80
27376;DHT22;14844;51.302;6.354;2022-09-03T06:52:25;18.80;85.40
27376;DHT22;14844;51.302;6.354;2022-09-03T06:54:51;19.00;84.80
27376;DHT22;14844;51.302;6.354;2022-09-03T06:57:16;19.10;84.10
27376;DHT22;14844;51.302;6.354;2022-09-03T06:59:42;19.30;83.20
27376;DHT22;14844;51.302;6.354;2022-09-03T07:02:09;19.40;83.00
27376;DHT22;14844;51.302;6.354;2022-09-03T07:04:34;19.50;82.00
27376;DHT22;14844;51.302;6.354;2022-09-03T07:07:00;19.60;81.30
27376;DHT22;14844;51.302;6.354;2022-09-03T07:09:26;19.80;81.10
27376;DHT22;14844;51.302;6.354;2022-09-03T07:11:52;20.00;80.40
27376;DHT22;14844;51.302;6.354;2022-09-03T07:14:19;20.20;79.10
27376;DHT22;14844;51.302;6.354;2022-09-03T07:16:46;20.30;77.90
27376;DHT22;14844;51.302;6.354;2022-09-03T07:19:12;20.40;78.30
27376;DHT22;14844;51.302;6.354;2022-09-03T07:21:38;20.40;77.80
27376;DHT22;14844;51.302;6.354;2022-09-03T07:24:08;20.50;77.30
27376;DHT22;14844;51.302;6.354;2022-09-03T07:26:36;20.70;77.50
27376;DHT22;14844;51.302;6.354;2022-09-03T07:29:03;20.80;76.60
27376;DHT22;14844;51.302;6.354;2022-09-03T07:31:34;21.00;75.10
27376;DHT22;14844;51.302;6.354;2022-09-03T07:34:05;21.30;74.80
27376;DHT22;14844;51.302;6.354;2022-09-03T07:36:36;21.50;74.70
27376;DHT22;14844;51.302;6.354;2022-09-03T07:39:03;21.60;73.30
27376;DHT22;14844;51.302;6.354;2022-09-03T07:41:29;21.70;72.50
27376;DHT22;14844;51.302;6.354;2022-09-03T07:43:57;21.80;72.00
27376;DHT22;14844;51.302;6.354;2022-09-03T07:46:26;21.90;71.60
27376;DHT22;14844;51.302;6.354;2022-09-03T07:48:53;21.70;71.70
27376;DHT22;14844;51.302;6.354;2022-09-03T07:51:20;21.60;71.40
27376;DHT22;14844;51.302;6.354;2022-09-03T07:53:47;21.40;71.60
27376;DHT22;14844;51.302;6.354;2022-09-03T07:56:14;21.20;72.20
27376;DHT22;14844;51.302;6.354;2022-09-03T07:58:40;21.00;72.30
27376;DHT22;14844;51.302;6.354;2022-09-03T08:01:22;20.70;72.70
27376;DHT22;14844;51.302;6.354;2022-09-03T08:03:49;20.70;73.20
27376;DHT22;14844;51.302;6.354;2022-09-03T08:06:17;20.60;73.40
27376;DHT22;14844;51.302;6.354;2022-09-03T08:08:43;20.60;73.00
27376;DHT22;14844;51.302;6.354;2022-09-03T08:11:17;20.60;73.00
27376;DHT22;14844;51.302;6.354;2022-09-03T08:13:56;20.80;73.30
27376;DHT22;14844;51.302;6.354;2022-09-03T08:16:26;21.10;72.70
27376;DHT22;14844;51.302;6.354;2022-09-03T08:18:52;21.30;71.90
27376;DHT22;14844;51.302;6.354;2022-09-03T08:21:18;21.60;72.40
27376;DHT22;14844;51.302;6.354;2022-09-03T08:23:50;21.50;71.40
27376;DHT22;14844;51.302;6.354;2022-09-03T08:26:17;21.80;70.20
27376;DHT22;14844;51.302;6.354;2022-09-03T08:28:43;22.00;69.30
27376;DHT22;14844;51.302;6.354;2022-09-03T08:31:17;22.20;69.60
27376;DHT22;14844;51.302;6.354;2022-09-03T08:33:49;22.50;69.40
27376;DHT22;14844;51.302;6.354;2022-09-03T08:36:17;22.60;68.80
27376;DHT22;14844;51.302;6.354;2022-09-03T08:38:44;22.80;69.10
27376;DHT22;14844;51.302;6.354;2022-09-03T08:41:16;22.80;67.90
27376;DHT22;14844;51.302;6.354;2022-09-03T08:43:54;22.80;67.60
27376;DHT22;14844;51.302;6.354;2022-09-03T08:46:32;22.90;67.70
27376;DHT22;14844;51.302;6.354;2022-09-03T08:48:58;23.10;67.20
27376;DHT22;14844;51.302;6.354;2022-09-03T08:51:25;23.30;67.30
27376;DHT22;14844;51.302;6.354;2022-09-03T08:53:54;23.40;66.70
27376;DHT22;14844;51.302;6.354;2022-09-03T08:56:30;23.60;65.60
27376;DHT22;14844;51.302;6.354;2022-09-03T08:58:56;23.60;66.00
27376;DHT22;14844;51.302;6.354;2022-09-03T09:01:45;23.60;65.50
27376;DHT22;14844;51.302;6.354;2022-09-03T09:04:29;23.70;65.70
27376;DHT22;14844;51.302;6.354;2022-09-03T09:07:09;23.70;65.00
27376;DHT22;14844;51.302;6.354;2022-09-03T09:09:45;23.80;65.50
27376;DHT22;14844;51.302;6.354;2022-09-03T09:20:38;24.50;64.20
27376;DHT22;14844;51.302;6.354;2022-09-03T09:23:12;24.50;64.30
27376;DHT22;14844;51.302;6.354;2022-09-03T09:25:46;24.70;63.30
27376;DHT22;14844;51.302;6.354;2022-09-03T09:28:21;24.80;63.00
27376;DHT22;14844;51.302;6.354;2022-09-03T09:30:48;24.80;62.90
27376;DHT22;14844;51.302;6.354;2022-09-03T09:33:16;24.80;62.90
27376;DHT22;14844;51.302;6.354;2022-09-03T09:35:42;24.80;63.50
27376;DHT22;14844;51.302;6.354;2022-09-03T09:38:09;24.90;63.00
27376;DHT22;14844;51.302;6.354;2022-09-03T09:40:41;25.10;62.90
27376;DHT22;14844;51.302;6.354;2022-09-03T09:43:11;25.10;63.10
27376;DHT22;14844;51.302;6.354;2022-09-03T09:45:39;25.10;62.00
27376;DHT22;14844;51.302;6.354;2022-09-03T09:50:45;25.40;62.00
27376;DHT22;14844;51.302;6.354;2022-09-03T09:53:11;25.20;62.30
27376;DHT22;14844;51.302;6.354;2022-09-03T09:55:53;25.40;62.80
27376;DHT22;14844;51.302;6.354;2022-09-03T09:58:24;25.40;62.30
27376;DHT22;14844;51.302;6.354;2022-09-03T10:00:58;25.40;61.90
27376;DHT22;14844;51.302;6.354;2022-09-03T10:03:25;25.60;61.90
27376;DHT22;14844;51.302;6.354;2022-09-03T10:06:07;25.60;61.30
27376;DHT22;14844;51.302;6.354;2022-09-03T10:11:43;25.60;62.50
27376;DHT22;14844;51.302;6.354;2022-09-03T10:16:47;25.70;62.80
27376;DHT22;14844;51.302;6.354;2022-09-03T10:19:22;25.90;61.80
27376;DHT22;14844;51.302;6.354;2022-09-03T10:22:04;26.10;61.80
27376;DHT22;14844;51.302;6.354;2022-09-03T10:24:57;26.30;61.60
27376;DHT22;14844;51.302;6.354;2022-09-03T10:27:23;26.30;61.40
27376;DHT22;14844;51.302;6.354;2022-09-03T10:29:50;26.20;61.70
27376;DHT22;14844;51.302;6.354;2022-09-03T10:32:37;26.50;61.90
27376;DHT22;14844;51.302;6.354;2022-09-03T10:35:28;26.60;61.90
27376;DHT22;14844;51.302;6.354;2022-09-03T10:38:09;27.00;60.90
27376;DHT22;14844;51.302;6.354;2022-09-03T10:40:48;27.00;60.80
27376;DHT22;14844;51.302;6.354;2022-09-03T10:43:39;26.90;61.60
27376;DHT22;14844;51.302;6.354;2022-09-03T10:46:24;26.90;61.10
27376;DHT22;14844;51.302;6.354;2022-09-03T10:49:14;27.00;61.90
27376;DHT22;14844;51.302;6.354;2022-09-03T10:52:00;27.00;61.60
27376;DHT22;14844;51.302;6.354;2022-09-03T10:54:51;27.30;62.20
27376;DHT22;14844;51.302;6.354;2022-09-03T10:58:19;27.30;61.50
27376;DHT22;14844;51.302;6.354;2022-09-03T11:00:52;27.00;61.50
27376;DHT22;14844;51.302;6.354;2022-09-03T11:03:26;26.70;62.00
27376;DHT22;14844;51.302;6.354;2022-09-03T11:06:02;26.80;62.80
27376;DHT22;14844;51.302;6.354;2022-09-03T11:11:22;26.90;62.70
27376;DHT22;14844;51.302;6.354;2022-09-03T11:13:58;27.20;62.30
27376;DHT22;14844;51.302;6.354;2022-09-03T11:16:51;27.30;62.30
27376;DHT22;14844;51.302;6.354;2022-09-03T11:19:21;27.10;62.80
27376;DHT22;14844;51.302;6.354;2022-09-03T11:21:49;26.90;63.40
27376;DHT22;14844;51.302;6.354;2022-09-03T11:24:21;27.10;63.00
27376;DHT22;14844;51.302;6.354;2022-09-03T11:26:54;27.20;62.80
27376;DHT22;14844;51.302;6.354;2022-09-03T11:35:14;27.50;62.10
27376;DHT22;14844;51.302;6.354;2022-09-03T11:40:18;27.70;61.80
27376;DHT22;14844;51.302;6.354;2022-09-03T11:42:45;27.80;62.00
27376;DHT22;14844;51.302;6.354;2022-09-03T11:47:52;27.50;62.40
27376;DHT22;14844;51.302;6.354;2022-09-03T11:52:52;26.90;62.90
27376;DHT22;14844;51.302;6.354;2022-09-03T11:55:31;26.60;64.00
27376;DHT22;14844;51.302;6.354;2022-09-03T11:58:09;26.50;64.30
27376;DHT22;14844;51.302;6.354;2022-09-03T12:00:35;26.50;65.10
27376;DHT22;14844;51.302;6.354;2022-09-03T12:03:03;26.70;65.40
27376;DHT22;14844;51.302;6.354;2022-09-03T12:11:18;27.10;63.40
27376;DHT22;14844;51.302;6.354;2022-09-03T12:13:57;27.00;63.80
27376;DHT22;14844;51.302;6.354;2022-09-03T12:22:01;27.10;64.50
27376;DHT22;14844;51.302;6.354;2022-09-03T12:24:29;27.20;65.30
27376;DHT22;14844;51.302;6.354;2022-09-03T12:27:01;27.30;64.90
27376;DHT22;14844;51.302;6.354;2022-09-03T12:29:29;27.20;65.20
27376;DHT22;14844;51.302;6.354;2022-09-03T12:32:05;27.20;65.50
27376;DHT22;14844;51.302;6.354;2022-09-03T12:34:31;27.20;65.90
27376;DHT22;14844;51.302;6.354;2022-09-03T12:36:57;27.50;67.00
27376;DHT22;14844;51.302;6.354;2022-09-03T12:39:25;27.60;65.40
27376;DHT22;14844;51.302;6.354;2022-09-03T12:42:05;27.60;65.00
27376;DHT22;14844;51.302;6.354;2022-09-03T12:49:51;27.60;65.10
27376;DHT22;14844;51.302;6.354;2022-09-03T12:55:05;27.40;65.90
27376;DHT22;14844;51.302;6.354;2022-09-03T12:57:39;27.30;65.90
27376;DHT22;14844;51.302;6.354;2022-09-03T13:00:12;27.50;65.80
27376;DHT22;14844;51.302;6.354;2022-09-03T13:05:24;27.60;64.30
27376;DHT22;14844;51.302;6.354;2022-09-03T13:07:52;27.70;65.30
27376;DHT22;14844;51.302;6.354;2022-09-03T13:10:26;27.70;64.40
27376;DHT22;14844;51.302;6.354;2022-09-03T13:12:56;27.60;64.30
27376;DHT22;14844;51.302;6.354;2022-09-03T13:15:23;27.60;64.20
27376;DHT22;14844;51.302;6.354;2022-09-03T13:20:50;27.90;64.90
27376;DHT22;14844;51.302;6.354;2022-09-03T13:23:41;28.00;63.80
27376;DHT22;14844;51.302;6.354;2022-09-03T13:29:18;27.90;62.70
27376;DHT22;14844;51.302;6.354;2022-09-03T13:31:54;27.80;64.50
27376;DHT22;14844;51.302;6.354;2022-09-03T13:34:37;27.80;65.80
27376;DHT22;14844;51.302;6.354;2022-09-03T13:39:59;27.60;65.90
27376;DHT22;14844;51.302;6.354;2022-09-03T13:42:34;27.60;65.90
27376;DHT22;14844;51.302;6.354;2022-09-03T13:48:19;27.80;65.50
27376;DHT22;14844;51.302;6.354;2022-09-03T13:51:27;27.90;65.70
27376;DHT22;14844;51.302;6.354;2022-09-03T13:54:13;27.90;65.90
27376;DHT22;14844;51.302;6.354;2022-09-03T14:05:00;28.40;65.70
27376;DHT22;14844;51.302;6.354;2022-09-03T14:10:34;28.30;66.40
27376;DHT22;14844;51.302;6.354;2022-09-03T14:13:18;28.40;64.90
27376;DHT22;14844;51.302;6.354;2022-09-03T14:15:56;28.30;65.90
27376;DHT22;14844;51.302;6.354;2022-09-03T14:18:41;28.20;64.90
27376;DHT22;14844;51.302;6.354;2022-09-03T14:21:26;28.20;64.60
27376;DHT22;14844;51.302;6.354;2022-09-03T14:24:15;28.10;63.40
27376;DHT22;14844;51.302;6.354;2022-09-03T14:26:58;28.10;65.30
27376;DHT22;14844;51.302;6.354;2022-09-03T14:29:27;28.10;64.40
27376;DHT22;14844;51.302;6.354;2022-09-03T14:40:39;28.20;64.60
27376;DHT22;14844;51.302;6.354;2022-09-03T14:43:39;28.30;65.10
27376;DHT22;14844;51.302;6.354;2022-09-03T14:46:22;28.30;64.20
27376;DHT22;14844;51.302;6.354;2022-09-03T14:49:08;28.10;63.80
27376;DHT22;14844;51.302;6.354;2022-09-03T14:52:06;28.10;64.50
27376;DHT22;14844;51.302;6.354;2022-09-03T14:55:12;28.10;64.80
27376;DHT22;14844;51.302;6.354;2022-09-03T15:06:18;28.60;64.00
27376;DHT22;14844;51.302;6.354;2022-09-03T15:09:26;29.50;62.80
27376;DHT22;14844;51.302;6.354;2022-09-03T15:12:02;30.00;61.60
27376;DHT22;14844;51.302;6.354;2022-09-03T15:14:38;30.10;60.20
27376;DHT22;14844;51.302;6.354;2022-09-03T15:19:53;31.90;58.20
27376;DHT22;14844;51.302;6.354;2022-09-03T15:22:43;31.70;58.30
27376;DHT22;14844;51.302;6.354;2022-09-03T15:28:29;30.40;58.70
27376;DHT22;14844;51.302;6.354;2022-09-03T15:31:13;29.70;61.30
27376;DHT22;14844;51.302;6.354;2022-09-03T15:36:35;31.30;59.40
27376;DHT22;14844;51.302;6.354;2022-09-03T15:39:05;31.80;58.20
27376;DHT22;14844;51.302;6.354;2022-09-03T15:41:42;32.20;57.70
27376;DHT22;14844;51.302;6.354;2022-09-03T15:44:14;33.10;56.50
27376;DHT22;14844;51.302;6.354;2022-09-03T15:46:58;33.60;55.60
27376;DHT22;14844;51.302;6.354;2022-09-03T15:52:23;34.10;54.00
27376;DHT22;14844;51.302;6.354;2022-09-03T15:55:08;34.60;53.10
27376;DHT22;14844;51.302;6.354;2022-09-03T15:57:49;34.80;53.40
27376;DHT22;14844;51.302;6.354;2022-09-03T16:00:18;34.40;52.50
27376;DHT22;14844;51.302;6.354;2022-09-03T16:05:52;34.50;52.30
27376;DHT22;14844;51.302;6.354;2022-09-03T16:11:08;35.30;51.20
27376;DHT22;14844;51.302;6.354;2022-09-03T16:16:30;35.10;50.60
27376;DHT22;14844;51.302;6.354;2022-09-03T16:21:59;32.70;53.30
27376;DHT22;14844;51.302;6.354;2022-09-03T16:27:21;32.30;53.90
27376;DHT22;14844;51.302;6.354;2022-09-03T16:29:58;32.50;53.60
27376;DHT22;14844;51.302;6.354;2022-09-03T16:33:19;32.80;53.20
27376;DHT22;14844;51.302;6.354;2022-09-03T16:36:16;33.30;52.40
27376;DHT22;14844;51.302;6.354;2022-09-03T16:47:02;30.30;56.80
27376;DHT22;14844;51.302;6.354;2022-09-03T16:49:40;29.40;58.50
27376;DHT22;14844;51.302;6.354;2022-09-03T16:52:14;28.90;59.30
27376;DHT22;14844;51.302;6.354;2022-09-03T17:03:56;27.80;62.20
27376;DHT22;14844;51.302;6.354;2022-09-03T17:11:53;27.20;63.80
27376;DHT22;14844;51.302;6.354;2022-09-03T17:17:03;26.70;65.80
27376;DHT22;14844;51.302;6.354;2022-09-03T17:20:20;27.40;65.60
27376;DHT22;14844;51.302;6.354;2022-09-03T17:34:06;31.20;58.70
27376;DHT22;14844;51.302;6.354;2022-09-03T17:36:48;31.70;59.50
27376;DHT22;14844;51.302;6.354;2022-09-03T17:39:30;32.10;58.20
27376;DHT22;14844;51.302;6.354;2022-09-03T17:42:13;32.10;59.30
27376;DHT22;14844;51.302;6.354;2022-09-03T17:48:02;31.40;59.90
27376;DHT22;14844;51.302;6.354;2022-09-03T17:50:44;30.20;61.50
27376;DHT22;14844;51.302;6.354;2022-09-03T17:53:20;29.00;63.70
27376;DHT22;14844;51.302;6.354;2022-09-03T17:55:58;28.10;66.00
27376;DHT22;14844;51.302;6.354;2022-09-03T17:58:33;27.30;67.10
27376;DHT22;14844;51.302;6.354;2022-09-03T18:03:54;25.90;70.40
27376;DHT22;14844;51.302;6.354;2022-09-03T18:09:22;24.70;74.40
27376;DHT22;14844;51.302;6.354;2022-09-03T18:14:34;23.80;77.30
27376;DHT22;14844;51.302;6.354;2022-09-03T18:17:26;23.40;79.30
27376;DHT22;14844;51.302;6.354;2022-09-03T18:20:02;23.10;81.00
27376;DHT22;14844;51.302;6.354;2022-09-03T18:25:38;22.60;83.70
27376;DHT22;14844;51.302;6.354;2022-09-03T18:28:36;22.40;85.30
27376;DHT22;14844;51.302;6.354;2022-09-03T18:31:21;22.20;85.90
27376;DHT22;14844;51.302;6.354;2022-09-03T18:34:07;22.00;87.00
27376;DHT22;14844;51.302;6.354;2022-09-03T18:36:50;21.90;88.00
27376;DHT22;14844;51.302;6.354;2022-09-03T18:39:35;21.70;88.90
27376;DHT22;14844;51.302;6.354;2022-09-03T18:45:42;21.40;90.30
27376;DHT22;14844;51.302;6.354;2022-09-03T18:48:48;21.30;90.90
27376;DHT22;14844;51.302;6.354;2022-09-03T18:51:45;21.20;91.20
27376;DHT22;14844;51.302;6.354;2022-09-03T18:54:50;21.10;91.60
27376;DHT22;14844;51.302;6.354;2022-09-03T19:09:59;20.50;94.10
27376;DHT22;14844;51.302;6.354;2022-09-03T19:13:11;20.40;94.50
27376;DHT22;14844;51.302;6.354;2022-09-03T19:19:27;20.10;95.20
27376;DHT22;14844;51.302;6.354;2022-09-03T19:22:34;20.00;95.60
27376;DHT22;14844;51.302;6.354;2022-09-03T19:25:20;20.00;96.30
27376;DHT22;14844;51.302;6.354;2022-09-03T19:33:59;20.00;97.80
27376;DHT22;14844;51.302;6.354;2022-09-03T19:37:16;20.00;98.50
27376;DHT22;14844;51.302;6.354;2022-09-03T19:40:15;20.10;99.00
27376;DHT22;14844;51.302;6.354;2022-09-03T19:52:33;20.00;99.90
27376;DHT22;14844;51.302;6.354;2022-09-03T19:55:25;19.90;99.90
27376;DHT22;14844;51.302;6.354;2022-09-03T19:58:12;19.80;99.90
27376;DHT22;14844;51.302;6.354;2022-09-03T20:00:59;19.70;99.90
27376;DHT22;14844;51.302;6.354;2022-09-03T20:03:44;19.70;99.90
27376;DHT22;14844;51.302;6.354;2022-09-03T20:06:28;19.60;99.90
27376;DHT22;14844;51.302;6.354;2022-09-03T20:09:16;19.60;99.90
27376;DHT22;14844;51.302;6.354;2022-09-03T20:12:05;19.50;99.90
27376;DHT22;14844;51.302;6.354;2022-09-03T20:14:34;19.40;99.90
27376;DHT22;14844;51.302;6.354;2022-09-03T20:20:23;19.40;99.90
27376;DHT22;14844;51.302;6.354;2022-09-03T20:26:16;19.40;99.90